Halesite, New York
Current Conditions -  °F | °C
As of 6:53 AM on Friday 28 Nov 2014 (Local Time) from KFRG Reporting Station
Clear Clear  
Wind Chill: 24°   Ceiling: Unl
Heat Index: 32°   Visibility: 10mi
Dew Point: 22°   Wind: 9mph
Humidity: 66%   Direction: 320°NW
Pressure: 30.12"   Gusts: NA
Location:  40.8966°N, 73.4362°W
Report Text: KFRG 281153Z 32008KT 10SM CLR 00/M06 A3012 RMK AO2 SLP199 T00001056 10017 21006 53019
Loading
Personal Weather Stations






























Interactive Weather Map New forecast layout! Learn more

10-Day Weather Forecast

Advertisements
Track Severe Weather on mobile